sensor_id;sensor_type;location;lat;lon;timestamp;temperature;humidity
22850;DHT22;11591;44.792;10.358;2023-04-01T00:00:27;13.10;99.90
22850;DHT22;11591;44.792;10.358;2023-04-01T00:02:53;12.90;99.90
22850;DHT22;11591;44.792;10.358;2023-04-01T00:05:19;12.90;99.90
22850;DHT22;11591;44.792;10.358;2023-04-01T00:07:45;12.90;99.90
22850;DHT22;11591;44.792;10.358;2023-04-01T00:10:12;12.90;99.90
22850;DHT22;11591;44.792;10.358;2023-04-01T00:12:39;13.00;99.90
22850;DHT22;11591;44.792;10.358;2023-04-01T00:15:07;13.10;99.90
22850;DHT22;11591;44.792;10.358;2023-04-01T00:17:33;13.10;99.90
22850;DHT22;11591;44.792;10.358;2023-04-01T00:19:59;13.00;99.90
22850;DHT22;11591;44.792;10.358;2023-04-01T00:22:26;13.00;99.90
22850;DHT22;11591;44.792;10.358;2023-04-01T00:24:52;13.10;99.90
22850;DHT22;11591;44.792;10.358;2023-04-01T00:27:19;13.10;99.90
22850;DHT22;11591;44.792;10.358;2023-04-01T00:29:46;12.90;99.90
22850;DHT22;11591;44.792;10.358;2023-04-01T00:32:14;12.90;99.90
22850;DHT22;11591;44.792;10.358;2023-04-01T00:34:40;13.00;99.90
22850;DHT22;11591;44.792;10.358;2023-04-01T00:37:07;13.00;99.90
22850;DHT22;11591;44.792;10.358;2023-04-01T00:39:34;13.00;99.90
22850;DHT22;11591;44.792;10.358;2023-04-01T00:42:01;13.00;99.90
22850;DHT22;11591;44.792;10.358;2023-04-01T00:44:30;13.00;99.90
22850;DHT22;11591;44.792;10.358;2023-04-01T00:46:56;13.10;99.90
22850;DHT22;11591;44.792;10.358;2023-04-01T00:49:26;13.00;99.90
22850;DHT22;11591;44.792;10.358;2023-04-01T00:51:54;13.00;99.90
22850;DHT22;11591;44.792;10.358;2023-04-01T00:54:22;13.00;99.90
22850;DHT22;11591;44.792;10.358;2023-04-01T00:59:27;13.00;99.90
22850;DHT22;11591;44.792;10.358;2023-04-01T01:01:54;13.00;99.90
22850;DHT22;11591;44.792;10.358;2023-04-01T01:04:25;13.00;99.90
22850;DHT22;11591;44.792;10.358;2023-04-01T01:12:16;12.90;99.90
22850;DHT22;11591;44.792;10.358;2023-04-01T01:15:24;12.90;99.90
22850;DHT22;11591;44.792;10.358;2023-04-01T01:23:37;12.80;99.90
22850;DHT22;11591;44.792;10.358;2023-04-01T01:26:33;12.80;99.90
22850;DHT22;11591;44.792;10.358;2023-04-01T01:29:27;12.80;99.90
22850;DHT22;11591;44.792;10.358;2023-04-01T01:37:23;12.80;99.90
22850;DHT22;11591;44.792;10.358;2023-04-01T01:39:56;12.80;99.90
22850;DHT22;11591;44.792;10.358;2023-04-01T01:42:25;12.90;99.90
22850;DHT22;11591;44.792;10.358;2023-04-01T01:44:55;12.90;99.90
22850;DHT22;11591;44.792;10.358;2023-04-01T01:47:23;13.00;99.90
22850;DHT22;11591;44.792;10.358;2023-04-01T01:49:51;13.00;99.90
22850;DHT22;11591;44.792;10.358;2023-04-01T01:52:18;13.00;99.90
22850;DHT22;11591;44.792;10.358;2023-04-01T01:54:55;12.90;99.90
22850;DHT22;11591;44.792;10.358;2023-04-01T01:57:36;12.80;99.90
22850;DHT22;11591;44.792;10.358;2023-04-01T02:00:09;12.80;99.90
22850;DHT22;11591;44.792;10.358;2023-04-01T02:02:46;12.80;99.90
22850;DHT22;11591;44.792;10.358;2023-04-01T02:05:20;12.70;99.90
22850;DHT22;11591;44.792;10.358;2023-04-01T02:08:00;12.70;99.90
22850;DHT22;11591;44.792;10.358;2023-04-01T02:10:29;12.70;99.90
22850;DHT22;11591;44.792;10.358;2023-04-01T02:13:00;12.60;99.90
22850;DHT22;11591;44.792;10.358;2023-04-01T02:15:27;12.60;99.90
22850;DHT22;11591;44.792;10.358;2023-04-01T02:17:56;12.50;99.90
22850;DHT22;11591;44.792;10.358;2023-04-01T02:20:23;12.50;99.90
22850;DHT22;11591;44.792;10.358;2023-04-01T02:22:51;12.40;99.90
22850;DHT22;11591;44.792;10.358;2023-04-01T02:25:23;12.40;99.90
22850;DHT22;11591;44.792;10.358;2023-04-01T02:27:51;12.20;99.90
22850;DHT22;11591;44.792;10.358;2023-04-01T02:30:18;12.20;99.90
22850;DHT22;11591;44.792;10.358;2023-04-01T02:32:44;12.10;99.90
22850;DHT22;11591;44.792;10.358;2023-04-01T02:35:14;12.10;99.90
22850;DHT22;11591;44.792;10.358;2023-04-01T02:37:42;12.10;99.90
22850;DHT22;11591;44.792;10.358;2023-04-01T02:40:12;11.90;99.90
22850;DHT22;11591;44.792;10.358;2023-04-01T02:42:38;11.90;99.90
22850;DHT22;11591;44.792;10.358;2023-04-01T02:45:05;11.90;99.90
22850;DHT22;11591;44.792;10.358;2023-04-01T02:47:31;11.80;99.90
22850;DHT22;11591;44.792;10.358;2023-04-01T02:49:57;11.60;99.90
22850;DHT22;11591;44.792;10.358;2023-04-01T02:52:28;11.60;99.90
22850;DHT22;11591;44.792;10.358;2023-04-01T02:54:56;11.60;99.90
22850;DHT22;11591;44.792;10.358;2023-04-01T02:57:22;11.60;99.90
22850;DHT22;11591;44.792;10.358;2023-04-01T02:59:48;11.60;99.90
22850;DHT22;11591;44.792;10.358;2023-04-01T03:02:15;11.60;99.90
22850;DHT22;11591;44.792;10.358;2023-04-01T03:04:41;11.60;99.90
22850;DHT22;11591;44.792;10.358;2023-04-01T03:07:07;11.70;99.90
22850;DHT22;11591;44.792;10.358;2023-04-01T03:09:34;11.80;99.90
22850;DHT22;11591;44.792;10.358;2023-04-01T03:11:59;11.70;99.90
22850;DHT22;11591;44.792;10.358;2023-04-01T03:14:26;11.70;99.90
22850;DHT22;11591;44.792;10.358;2023-04-01T03:16:52;11.70;99.90
22850;DHT22;11591;44.792;10.358;2023-04-01T03:19:18;11.80;99.90
22850;DHT22;11591;44.792;10.358;2023-04-01T03:21:44;11.70;99.90
22850;DHT22;11591;44.792;10.358;2023-04-01T03:24:09;11.80;99.90
22850;DHT22;11591;44.792;10.358;2023-04-01T03:26:35;11.80;99.90
22850;DHT22;11591;44.792;10.358;2023-04-01T03:29:01;11.80;99.90
22850;DHT22;11591;44.792;10.358;2023-04-01T03:31:27;11.70;99.90
22850;DHT22;11591;44.792;10.358;2023-04-01T03:33:56;11.70;99.90
22850;DHT22;11591;44.792;10.358;2023-04-01T03:36:22;11.70;99.90
22850;DHT22;11591;44.792;10.358;2023-04-01T03:38:47;11.70;99.90
22850;DHT22;11591;44.792;10.358;2023-04-01T03:41:19;11.80;99.90
22850;DHT22;11591;44.792;10.358;2023-04-01T03:43:45;11.70;99.90
22850;DHT22;11591;44.792;10.358;2023-04-01T03:46:11;11.70;99.90
22850;DHT22;11591;44.792;10.358;2023-04-01T03:48:37;11.60;99.90
22850;DHT22;11591;44.792;10.358;2023-04-01T03:51:07;11.50;99.90
22850;DHT22;11591;44.792;10.358;2023-04-01T03:53:33;11.40;99.90
22850;DHT22;11591;44.792;10.358;2023-04-01T03:56:08;11.30;99.90
22850;DHT22;11591;44.792;10.358;2023-04-01T03:58:36;11.30;99.90
22850;DHT22;11591;44.792;10.358;2023-04-01T04:01:03;11.30;99.90
22850;DHT22;11591;44.792;10.358;2023-04-01T04:03:30;11.40;99.90
22850;DHT22;11591;44.792;10.358;2023-04-01T04:05:57;11.40;99.90
22850;DHT22;11591;44.792;10.358;2023-04-01T04:08:23;11.40;99.90
22850;DHT22;11591;44.792;10.358;2023-04-01T04:10:55;11.40;99.90
22850;DHT22;11591;44.792;10.358;2023-04-01T04:13:21;11.30;99.90
22850;DHT22;11591;44.792;10.358;2023-04-01T04:15:54;11.30;99.90
22850;DHT22;11591;44.792;10.358;2023-04-01T04:18:20;11.30;99.90
22850;DHT22;11591;44.792;10.358;2023-04-01T04:20:47;11.20;99.90
22850;DHT22;11591;44.792;10.358;2023-04-01T04:23:17;11.20;99.90
22850;DHT22;11591;44.792;10.358;2023-04-01T04:25:58;11.20;99.90
22850;DHT22;11591;44.792;10.358;2023-04-01T04:28:26;11.30;99.90
22850;DHT22;11591;44.792;10.358;2023-04-01T04:30:53;11.30;99.90
22850;DHT22;11591;44.792;10.358;2023-04-01T04:33:20;11.30;99.90
22850;DHT22;11591;44.792;10.358;2023-04-01T04:35:46;11.30;99.90
22850;DHT22;11591;44.792;10.358;2023-04-01T04:38:12;11.20;99.90
22850;DHT22;11591;44.792;10.358;2023-04-01T04:40:40;11.10;99.90
22850;DHT22;11591;44.792;10.358;2023-04-01T04:43:06;11.10;99.90
22850;DHT22;11591;44.792;10.358;2023-04-01T04:45:32;11.10;99.90
22850;DHT22;11591;44.792;10.358;2023-04-01T04:47:58;11.00;99.90
22850;DHT22;11591;44.792;10.358;2023-04-01T04:50:24;11.10;99.90
22850;DHT22;11591;44.792;10.358;2023-04-01T04:52:51;11.10;99.90
22850;DHT22;11591;44.792;10.358;2023-04-01T04:55:18;11.00;99.90
22850;DHT22;11591;44.792;10.358;2023-04-01T04:57:48;11.00;99.90
22850;DHT22;11591;44.792;10.358;2023-04-01T05:00:15;11.00;99.90
22850;DHT22;11591;44.792;10.358;2023-04-01T05:02:57;11.00;99.90
22850;DHT22;11591;44.792;10.358;2023-04-01T05:05:23;11.00;99.90
22850;DHT22;11591;44.792;10.358;2023-04-01T05:07:49;10.90;99.90
22850;DHT22;11591;44.792;10.358;2023-04-01T05:10:15;10.90;99.90
22850;DHT22;11591;44.792;10.358;2023-04-01T05:12:40;11.00;99.90
22850;DHT22;11591;44.792;10.358;2023-04-01T05:15:09;11.00;99.90
22850;DHT22;11591;44.792;10.358;2023-04-01T05:17:35;11.00;99.90
22850;DHT22;11591;44.792;10.358;2023-04-01T05:20:03;11.00;99.90
22850;DHT22;11591;44.792;10.358;2023-04-01T05:22:29;10.90;99.90
22850;DHT22;11591;44.792;10.358;2023-04-01T05:24:55;10.90;99.90
22850;DHT22;11591;44.792;10.358;2023-04-01T05:27:21;11.00;99.90
22850;DHT22;11591;44.792;10.358;2023-04-01T05:29:47;10.90;99.90
22850;DHT22;11591;44.792;10.358;2023-04-01T05:32:33;10.90;99.90
22850;DHT22;11591;44.792;10.358;2023-04-01T05:35:00;10.90;99.90
22850;DHT22;11591;44.792;10.358;2023-04-01T05:37:25;10.90;99.90
22850;DHT22;11591;44.792;10.358;2023-04-01T05:39:52;10.90;99.90
22850;DHT22;11591;44.792;10.358;2023-04-01T05:42:17;11.00;99.90
22850;DHT22;11591;44.792;10.358;2023-04-01T05:44:43;11.00;99.90
22850;DHT22;11591;44.792;10.358;2023-04-01T05:47:38;11.10;99.90
22850;DHT22;11591;44.792;10.358;2023-04-01T05:50:04;11.10;99.90
22850;DHT22;11591;44.792;10.358;2023-04-01T05:52:30;11.10;99.90
22850;DHT22;11591;44.792;10.358;2023-04-01T05:54:56;10.90;99.90
22850;DHT22;11591;44.792;10.358;2023-04-01T05:57:22;11.00;99.90
22850;DHT22;11591;44.792;10.358;2023-04-01T05:59:49;11.00;99.90
22850;DHT22;11591;44.792;10.358;2023-04-01T06:02:16;11.00;99.90
22850;DHT22;11591;44.792;10.358;2023-04-01T06:04:43;11.10;99.90
22850;DHT22;11591;44.792;10.358;2023-04-01T06:07:14;11.20;99.90
22850;DHT22;11591;44.792;10.358;2023-04-01T06:09:41;11.20;99.90
22850;DHT22;11591;44.792;10.358;2023-04-01T06:12:40;11.30;99.90
22850;DHT22;11591;44.792;10.358;2023-04-01T06:18:23;11.30;99.90
22850;DHT22;11591;44.792;10.358;2023-04-01T06:32:17;11.40;99.90
22850;DHT22;11591;44.792;10.358;2023-04-01T06:35:02;11.50;99.90
22850;DHT22;11591;44.792;10.358;2023-04-01T06:43:55;11.50;99.90
22850;DHT22;11591;44.792;10.358;2023-04-01T06:53:33;11.60;99.90
22850;DHT22;11591;44.792;10.358;2023-04-01T06:56:42;11.70;99.90
22850;DHT22;11591;44.792;10.358;2023-04-01T06:59:25;11.80;99.90
22850;DHT22;11591;44.792;10.358;2023-04-01T07:03:02;11.80;99.90
22850;DHT22;11591;44.792;10.358;2023-04-01T07:05:02;11.90;99.90
22850;DHT22;11591;44.792;10.358;2023-04-01T07:07:46;11.90;99.90
22850;DHT22;11591;44.792;10.358;2023-04-01T07:10:23;12.00;99.90
22850;DHT22;11591;44.792;10.358;2023-04-01T07:25:24;12.40;99.90
22850;DHT22;11591;44.792;10.358;2023-04-01T07:28:14;12.50;99.90
22850;DHT22;11591;44.792;10.358;2023-04-01T07:34:09;12.60;99.90
22850;DHT22;11591;44.792;10.358;2023-04-01T07:36:43;12.70;99.90
22850;DHT22;11591;44.792;10.358;2023-04-01T07:39:31;12.80;99.90
22850;DHT22;11591;44.792;10.358;2023-04-01T07:45:29;12.80;99.90
22850;DHT22;11591;44.792;10.358;2023-04-01T07:50:40;13.00;99.90
22850;DHT22;11591;44.792;10.358;2023-04-01T07:53:38;13.10;99.90
22850;DHT22;11591;44.792;10.358;2023-04-01T07:56:15;13.20;99.90
22850;DHT22;11591;44.792;10.358;2023-04-01T08:07:18;13.50;99.90
22850;DHT22;11591;44.792;10.358;2023-04-01T08:13:53;13.70;99.90
22850;DHT22;11591;44.792;10.358;2023-04-01T08:22:30;13.90;99.90
22850;DHT22;11591;44.792;10.358;2023-04-01T08:25:04;13.90;99.90
22850;DHT22;11591;44.792;10.358;2023-04-01T08:27:41;14.10;99.90
22850;DHT22;11591;44.792;10.358;2023-04-01T08:30:23;14.20;99.90
22850;DHT22;11591;44.792;10.358;2023-04-01T08:35:46;14.30;99.90
22850;DHT22;11591;44.792;10.358;2023-04-01T08:49:40;15.00;99.90
22850;DHT22;11591;44.792;10.358;2023-04-01T09:21:37;15.50;99.90
22850;DHT22;11591;44.792;10.358;2023-04-01T09:35:06;15.50;99.90
22850;DHT22;11591;44.792;10.358;2023-04-01T10:02:01;16.30;99.90
22850;DHT22;11591;44.792;10.358;2023-04-01T10:04:51;16.30;99.90
22850;DHT22;11591;44.792;10.358;2023-04-01T10:16:31;16.50;99.90
22850;DHT22;11591;44.792;10.358;2023-04-01T10:28:30;16.90;99.90
22850;DHT22;11591;44.792;10.358;2023-04-01T10:31:42;17.00;99.90
22850;DHT22;11591;44.792;10.358;2023-04-01T10:36:53;17.20;99.70
22850;DHT22;11591;44.792;10.358;2023-04-01T10:39:34;17.20;99.00
22850;DHT22;11591;44.792;10.358;2023-04-01T10:48:40;17.60;96.40
22850;DHT22;11591;44.792;10.358;2023-04-01T10:52:02;17.70;95.20
22850;DHT22;11591;44.792;10.358;2023-04-01T10:57:09;17.70;96.20
22850;DHT22;11591;44.792;10.358;2023-04-01T11:00:18;17.80;95.80
22850;DHT22;11591;44.792;10.358;2023-04-01T11:23:14;18.60;79.90
22850;DHT22;11591;44.792;10.358;2023-04-01T11:29:14;18.70;78.10
22850;DHT22;11591;44.792;10.358;2023-04-01T11:31:50;18.70;75.20
22850;DHT22;11591;44.792;10.358;2023-04-01T11:46:37;19.30;72.30
22850;DHT22;11591;44.792;10.358;2023-04-01T11:55:10;19.60;70.70
22850;DHT22;11591;44.792;10.358;2023-04-01T12:05:50;19.60;73.50
22850;DHT22;11591;44.792;10.358;2023-04-01T12:08:42;19.50;73.10
22850;DHT22;11591;44.792;10.358;2023-04-01T12:25:27;19.60;73.30
22850;DHT22;11591;44.792;10.358;2023-04-01T12:33:56;19.90;71.70
22850;DHT22;11591;44.792;10.358;2023-04-01T12:42:22;19.80;70.40
22850;DHT22;11591;44.792;10.358;2023-04-01T12:45:03;19.80;69.80
22850;DHT22;11591;44.792;10.358;2023-04-01T12:58:53;20.10;71.80
22850;DHT22;11591;44.792;10.358;2023-04-01T13:01:57;20.10;72.20
22850;DHT22;11591;44.792;10.358;2023-04-01T13:04:28;20.10;71.40
22850;DHT22;11591;44.792;10.358;2023-04-01T13:24:00;22.70;68.20
22850;DHT22;11591;44.792;10.358;2023-04-01T13:29:20;22.50;68.10
22850;DHT22;11591;44.792;10.358;2023-04-01T13:46:34;22.60;67.60
22850;DHT22;11591;44.792;10.358;2023-04-01T13:57:37;22.90;67.00
22850;DHT22;11591;44.792;10.358;2023-04-01T14:33:46;23.70;63.50
22850;DHT22;11591;44.792;10.358;2023-04-01T14:42:49;23.40;63.80
22850;DHT22;11591;44.792;10.358;2023-04-01T14:47:56;23.60;64.00
22850;DHT22;11591;44.792;10.358;2023-04-01T14:50:28;23.60;63.00
22850;DHT22;11591;44.792;10.358;2023-04-01T14:58:14;23.90;62.90
22850;DHT22;11591;44.792;10.358;2023-04-01T15:09:06;23.60;62.20
22850;DHT22;11591;44.792;10.358;2023-04-01T15:14:40;23.20;62.90
22850;DHT22;11591;44.792;10.358;2023-04-01T15:25:51;23.80;62.90
22850;DHT22;11591;44.792;10.358;2023-04-01T15:28:06;23.90;62.90
22850;DHT22;11591;44.792;10.358;2023-04-01T15:31:05;24.30;63.00
22850;DHT22;11591;44.792;10.358;2023-04-01T15:36:36;24.10;60.90
22850;DHT22;11591;44.792;10.358;2023-04-01T15:39:13;24.20;61.00
22850;DHT22;11591;44.792;10.358;2023-04-01T15:56:13;23.70;62.40
22850;DHT22;11591;44.792;10.358;2023-04-01T15:58:59;23.80;60.90
22850;DHT22;11591;44.792;10.358;2023-04-01T16:01:54;23.10;61.50
22850;DHT22;11591;44.792;10.358;2023-04-01T16:21:52;22.50;64.40
22850;DHT22;11591;44.792;10.358;2023-04-01T16:27:25;22.60;65.10
22850;DHT22;11591;44.792;10.358;2023-04-01T16:30:03;22.50;65.70
22850;DHT22;11591;44.792;10.358;2023-04-01T16:32:51;22.70;65.70
22850;DHT22;11591;44.792;10.358;2023-04-01T16:35:35;22.50;65.80
22850;DHT22;11591;44.792;10.358;2023-04-01T16:41:17;22.70;66.00
22850;DHT22;11591;44.792;10.358;2023-04-01T16:43:48;22.70;66.10
22850;DHT22;11591;44.792;10.358;2023-04-01T17:02:13;21.80;74.80
22850;DHT22;11591;44.792;10.358;2023-04-01T17:04:44;21.80;74.20
22850;DHT22;11591;44.792;10.358;2023-04-01T17:15:32;21.60;73.70
22850;DHT22;11591;44.792;10.358;2023-04-01T17:23:38;21.30;74.40
22850;DHT22;11591;44.792;10.358;2023-04-01T17:29:21;20.90;76.20
22850;DHT22;11591;44.792;10.358;2023-04-01T17:37:34;20.30;80.20
22850;DHT22;11591;44.792;10.358;2023-04-01T17:45:33;19.80;82.80
22850;DHT22;11591;44.792;10.358;2023-04-01T17:48:31;19.70;82.90
22850;DHT22;11591;44.792;10.358;2023-04-01T17:51:22;19.50;83.40
22850;DHT22;11591;44.792;10.358;2023-04-01T18:00:03;19.10;83.30
22850;DHT22;11591;44.792;10.358;2023-04-01T18:02:57;19.00;83.70
22850;DHT22;11591;44.792;10.358;2023-04-01T18:08:26;18.90;84.80
22850;DHT22;11591;44.792;10.358;2023-04-01T18:11:13;18.80;84.40
22850;DHT22;11591;44.792;10.358;2023-04-01T18:22:21;18.50;84.90
22850;DHT22;11591;44.792;10.358;2023-04-01T18:27:40;18.50;84.80
22850;DHT22;11591;44.792;10.358;2023-04-01T18:30:14;18.40;84.70
22850;DHT22;11591;44.792;10.358;2023-04-01T18:32:58;18.40;84.90
22850;DHT22;11591;44.792;10.358;2023-04-01T18:35:51;18.30;85.20
22850;DHT22;11591;44.792;10.358;2023-04-01T18:38:33;18.30;85.80
22850;DHT22;11591;44.792;10.358;2023-04-01T18:41:22;18.30;85.50
22850;DHT22;11591;44.792;10.358;2023-04-01T18:44:18;18.20;85.70
22850;DHT22;11591;44.792;10.358;2023-04-01T18:47:05;18.10;86.20
22850;DHT22;11591;44.792;10.358;2023-04-01T18:49:55;18.00;86.30
22850;DHT22;11591;44.792;10.358;2023-04-01T18:52:44;18.00;86.70
22850;DHT22;11591;44.792;10.358;2023-04-01T18:55:29;18.00;87.30
22850;DHT22;11591;44.792;10.358;2023-04-01T18:59:01;18.00;87.90
22850;DHT22;11591;44.792;10.358;2023-04-01T19:01:17;18.00;87.90
22850;DHT22;11591;44.792;10.358;2023-04-01T19:06:30;18.00;88.00
22850;DHT22;11591;44.792;10.358;2023-04-01T19:09:20;18.00;88.20
22850;DHT22;11591;44.792;10.358;2023-04-01T19:11:56;18.00;88.30
22850;DHT22;11591;44.792;10.358;2023-04-01T19:22:33;17.80;88.70
22850;DHT22;11591;44.792;10.358;2023-04-01T19:25:28;17.80;88.70
22850;DHT22;11591;44.792;10.358;2023-04-01T19:36:29;17.70;90.00
22850;DHT22;11591;44.792;10.358;2023-04-01T19:39:33;17.70;90.10
22850;DHT22;11591;44.792;10.358;2023-04-01T19:47:26;17.70;90.40
22850;DHT22;11591;44.792;10.358;2023-04-01T19:52:54;17.60;90.80
22850;DHT22;11591;44.792;10.358;2023-04-01T19:55:52;17.50;90.80
22850;DHT22;11591;44.792;10.358;2023-04-01T19:58:26;17.40;90.90
22850;DHT22;11591;44.792;10.358;2023-04-01T20:01:00;17.30;91.00
22850;DHT22;11591;44.792;10.358;2023-04-01T20:03:46;17.30;91.20
22850;DHT22;11591;44.792;10.358;2023-04-01T20:06:37;17.20;91.30
22850;DHT22;11591;44.792;10.358;2023-04-01T20:14:04;16.90;91.30
22850;DHT22;11591;44.792;10.358;2023-04-01T20:16:55;16.90;91.50
22850;DHT22;11591;44.792;10.358;2023-04-01T20:19:34;16.80;91.50
22850;DHT22;11591;44.792;10.358;2023-04-01T20:22:04;16.80;91.40
22850;DHT22;11591;44.792;10.358;2023-04-01T20:24:52;16.70;91.30
22850;DHT22;11591;44.792;10.358;2023-04-01T20:27:24;16.60;91.20
22850;DHT22;11591;44.792;10.358;2023-04-01T20:35:37;16.60;91.00
22850;DHT22;11591;44.792;10.358;2023-04-01T20:38:11;16.60;91.10
22850;DHT22;11591;44.792;10.358;2023-04-01T20:41:12;16.70;91.00
22850;DHT22;11591;44.792;10.358;2023-04-01T20:46:34;16.70;90.90
22850;DHT22;11591;44.792;10.358;2023-04-01T20:49:29;16.70;90.90
22850;DHT22;11591;44.792;10.358;2023-04-01T21:03:23;16.60;90.90
22850;DHT22;11591;44.792;10.358;2023-04-01T21:20:49;16.50;91.40
22850;DHT22;11591;44.792;10.358;2023-04-01T21:35:38;16.30;91.20
22850;DHT22;11591;44.792;10.358;2023-04-01T21:55:09;16.00;91.00
22850;DHT22;11591;44.792;10.358;2023-04-01T22:09:58;15.80;91.10
22850;DHT22;11591;44.792;10.358;2023-04-01T22:12:30;15.70;91.20
22850;DHT22;11591;44.792;10.358;2023-04-01T22:17:49;15.70;91.30
22850;DHT22;11591;44.792;10.358;2023-04-01T22:20:37;15.60;91.30
22850;DHT22;11591;44.792;10.358;2023-04-01T22:23:27;15.60;91.50
22850;DHT22;11591;44.792;10.358;2023-04-01T22:26:17;15.50;91.50
22850;DHT22;11591;44.792;10.358;2023-04-01T22:31:27;15.50;91.50
22850;DHT22;11591;44.792;10.358;2023-04-01T22:34:16;15.50;91.60
22850;DHT22;11591;44.792;10.358;2023-04-01T22:48:26;15.40;91.80
22850;DHT22;11591;44.792;10.358;2023-04-01T22:51:43;15.40;91.80
22850;DHT22;11591;44.792;10.358;2023-04-01T22:54:29;15.40;91.80
22850;DHT22;11591;44.792;10.358;2023-04-01T22:57:02;15.40;91.90
22850;DHT22;11591;44.792;10.358;2023-04-01T23:02:20;15.40;91.90
22850;DHT22;11591;44.792;10.358;2023-04-01T23:04:59;15.50;91.80
22850;DHT22;11591;44.792;10.358;2023-04-01T23:07:33;15.40;91.70
22850;DHT22;11591;44.792;10.358;2023-04-01T23:10:06;15.40;91.60
22850;DHT22;11591;44.792;10.358;2023-04-01T23:12:38;15.40;91.60
22850;DHT22;11591;44.792;10.358;2023-04-01T23:15:12;15.50;91.60
22850;DHT22;11591;44.792;10.358;2023-04-01T23:23:38;15.40;91.60
22850;DHT22;11591;44.792;10.358;2023-04-01T23:26:17;15.40;91.80
22850;DHT22;11591;44.792;10.358;2023-04-01T23:33:58;15.20;93.40
22850;DHT22;11591;44.792;10.358;2023-04-01T23:36:25;15.30;93.50
22850;DHT22;11591;44.792;10.358;2023-04-01T23:38:52;15.30;93.60
22850;DHT22;11591;44.792;10.358;2023-04-01T23:41:28;15.20;93.50
22850;DHT22;11591;44.792;10.358;2023-04-01T23:43:58;15.20;93.50
22850;DHT22;11591;44.792;10.358;2023-04-01T23:46:25;15.20;93.60
22850;DHT22;11591;44.792;10.358;2023-04-01T23:48:52;15.20;93.60
22850;DHT22;11591;44.792;10.358;2023-04-01T23:51:22;15.30;93.60
22850;DHT22;11591;44.792;10.358;2023-04-01T23:53:59;15.20;93.40
22850;DHT22;11591;44.792;10.358;2023-04-01T23:56:54;15.20;93.60
22850;DHT22;11591;44.792;10.358;2023-04-01T23:59:32;15.20;93.80
